createdAt,value
2023-02-20T00:00:37.807Z,11.00
2023-02-20T00:01:39.574Z,11.00
2023-02-20T00:02:41.383Z,11.00
2023-02-20T00:03:43.237Z,11.00
2023-02-20T00:04:47.199Z,10.83
2023-02-20T00:05:48.996Z,10.00
2023-02-20T00:06:51.185Z,10.00
2023-02-20T00:07:53.027Z,10.50
2023-02-20T00:08:55.128Z,11.00
2023-02-20T00:09:56.968Z,11.00
2023-02-20T00:10:58.851Z,11.00
2023-02-20T00:12:00.647Z,11.00
2023-02-20T00:13:02.496Z,11.00
2023-02-20T00:14:04.352Z,11.00
2023-02-20T00:15:06.812Z,11.00
2023-02-20T00:16:09.036Z,11.00
2023-02-20T00:17:11.022Z,11.00
2023-02-20T00:18:13.070Z,12.00
2023-02-20T00:19:15.846Z,12.00
2023-02-20T00:20:22.241Z,12.00
2023-02-20T00:21:24.357Z,12.00
2023-02-20T00:22:26.771Z,12.00
2023-02-20T00:23:28.590Z,11.00
2023-02-20T00:24:30.485Z,11.00
2023-02-20T00:25:32.359Z,11.00
2023-02-20T00:26:34.798Z,11.00
2023-02-20T00:27:36.642Z,11.00
2023-02-20T00:28:41.072Z,11.00
2023-02-20T00:29:45.338Z,11.00
2023-02-20T00:30:47.236Z,11.00
2023-02-20T00:31:53.749Z,11.00
2023-02-20T00:32:57.025Z,11.00
2023-02-20T00:33:58.832Z,11.00
2023-02-20T00:35:00.676Z,11.00
2023-02-20T00:36:02.470Z,10.67
2023-02-20T00:37:04.821Z,10.33
2023-02-20T00:38:06.775Z,10.33
2023-02-20T00:39:08.878Z,10.00
2023-02-20T00:40:11.748Z,10.00
2023-02-20T00:41:15.535Z,10.00
2023-02-20T00:42:17.424Z,10.00
2023-02-20T00:43:19.304Z,10.00
2023-02-20T00:44:21.054Z,11.00
2023-02-20T00:45:22.822Z,11.00
2023-02-20T00:46:24.734Z,11.00
2023-02-20T00:47:26.702Z,11.00
2023-02-20T00:48:28.841Z,11.00
2023-02-20T00:49:30.635Z,11.00
2023-02-20T00:50:32.872Z,11.00
2023-02-20T00:51:36.171Z,11.00
2023-02-20T00:52:39.574Z,11.00
2023-02-20T00:53:41.371Z,11.00
2023-02-20T00:54:43.211Z,11.00
2023-02-20T00:55:45.319Z,11.00
2023-02-20T00:56:47.484Z,11.00
2023-02-20T00:57:49.364Z,11.00
2023-02-20T00:58:52.816Z,11.00
2023-02-20T00:59:54.818Z,11.00
2023-02-20T01:00:56.676Z,12.50
2023-02-20T01:01:58.801Z,14.50
2023-02-20T01:03:00.819Z,15.00
2023-02-20T01:04:02.937Z,15.00
2023-02-20T01:05:05.066Z,14.83
2023-02-20T01:06:07.013Z,14.00
2023-02-20T01:07:09.357Z,14.00
2023-02-20T01:08:11.204Z,14.00
2023-02-20T01:09:13.363Z,14.00
2023-02-20T01:10:15.758Z,14.00
2023-02-20T01:11:17.849Z,14.00
2023-02-20T01:12:19.650Z,14.83
2023-02-20T01:13:21.709Z,15.00
2023-02-20T01:14:23.613Z,15.00
2023-02-20T01:15:25.477Z,15.67
2023-02-20T01:16:27.796Z,16.00
2023-02-20T01:17:29.918Z,16.67
2023-02-20T01:18:31.867Z,17.00
2023-02-20T01:19:33.720Z,18.00
2023-02-20T01:20:35.478Z,18.33
2023-02-20T01:21:37.806Z,19.00
2023-02-20T01:22:39.644Z,19.67
2023-02-20T01:23:41.422Z,20.00
2023-02-20T01:24:43.597Z,20.00
2023-02-20T01:25:45.434Z,20.00
2023-02-20T01:26:48.815Z,20.00
2023-02-20T01:27:50.733Z,20.00
2023-02-20T01:28:52.577Z,20.83
2023-02-20T01:29:54.644Z,21.00
2023-02-20T01:30:56.532Z,21.00
2023-02-20T01:31:58.758Z,21.00
2023-02-20T01:33:00.709Z,21.17
2023-02-20T01:34:02.987Z,22.17
2023-02-20T01:35:04.930Z,23.67
2023-02-20T01:36:07.271Z,24.00
2023-02-20T01:37:13.739Z,24.00
2023-02-20T01:38:15.726Z,24.00
2023-02-20T01:39:22.792Z,24.00
2023-02-20T01:40:25.042Z,25.00
2023-02-20T01:41:26.861Z,27.83
2023-02-20T01:42:30.949Z,31.83
2023-02-20T01:43:32.828Z,31.17
2023-02-20T01:44:37.217Z,30.67
2023-02-20T01:45:40.210Z,29.33
2023-02-20T01:46:49.298Z,27.67
2023-02-20T01:47:56.962Z,26.33
2023-02-20T01:49:06.173Z,26.00
2023-02-20T01:50:08.441Z,25.33
2023-02-20T01:51:12.593Z,25.00
2023-02-20T01:52:27.341Z,25.50
2023-02-20T01:53:30.787Z,26.50
2023-02-20T01:54:34.120Z,27.00
2023-02-20T01:55:42.703Z,27.83
2023-02-20T01:56:47.069Z,31.17
2023-02-20T01:57:52.723Z,31.33
2023-02-20T01:58:55.284Z,30.33
2023-02-20T02:00:02.781Z,29.33
2023-02-20T02:01:07.630Z,28.67
2023-02-20T02:02:10.879Z,27.33
2023-02-20T02:03:16.182Z,26.17
2023-02-20T02:04:18.111Z,25.33
2023-02-20T02:05:20.057Z,25.00
2023-02-20T02:06:22.116Z,24.00
2023-02-20T02:07:24.565Z,23.50
2023-02-20T02:08:28.931Z,23.00
2023-02-20T02:09:53.159Z,23.50
2023-02-20T02:11:02.211Z,24.00
2023-02-20T02:12:04.156Z,24.00
2023-02-20T02:13:07.321Z,24.83
2023-02-20T02:14:09.188Z,27.17
2023-02-20T02:15:16.407Z,29.00
2023-02-20T02:16:27.165Z,29.00
2023-02-20T02:18:03.075Z,28.50
2023-02-20T02:19:19.541Z,28.00
2023-02-20T02:20:45.268Z,27.83
2023-02-20T02:22:38.155Z,27.00
2023-02-20T02:23:42.669Z,27.00
2023-02-20T02:25:12.821Z,27.50
2023-02-20T02:26:44.356Z,27.67
2023-02-20T02:28:43.532Z,26.67
2023-02-20T02:30:15.170Z,24.33
2023-02-20T02:31:42.873Z,22.67
2023-02-20T02:32:56.630Z,22.17
2023-02-20T02:34:20.016Z,22.50
2023-02-20T02:36:00.653Z,21.33
2023-02-20T02:37:19.158Z,19.50
2023-02-20T02:38:26.358Z,19.00
2023-02-20T02:39:36.020Z,18.83
2023-02-20T02:40:53.197Z,18.00
2023-02-20T02:42:36.548Z,17.00
2023-02-20T02:43:54.275Z,17.00
2023-02-20T02:45:37.302Z,17.00
2023-02-20T02:46:59.731Z,17.50
2023-02-20T02:48:09.398Z,18.00
2023-02-20T02:49:29.282Z,18.83
2023-02-20T02:50:36.784Z,20.33
2023-02-20T02:51:44.046Z,21.00
2023-02-20T02:52:48.679Z,21.83
2023-02-20T02:54:10.871Z,22.83
2023-02-20T02:55:15.092Z,25.50
2023-02-20T02:56:22.590Z,28.00
2023-02-20T02:57:26.381Z,31.00
2023-02-20T02:58:28.614Z,33.33
2023-02-20T02:59:32.903Z,34.00
2023-02-20T03:00:42.569Z,33.00
2023-02-20T03:01:50.178Z,33.00
2023-02-20T03:03:18.353Z,32.00
2023-02-20T03:04:23.506Z,32.00
2023-02-20T03:05:40.309Z,32.00
2023-02-20T03:06:45.418Z,32.00
2023-02-20T03:07:52.983Z,32.00
2023-02-20T03:09:17.766Z,31.00
2023-02-20T03:10:31.816Z,31.00
2023-02-20T03:11:35.239Z,32.00
2023-02-20T03:12:43.237Z,32.00
2023-02-20T03:14:11.713Z,32.00
2023-02-20T03:15:33.413Z,31.17
2023-02-20T03:16:43.204Z,31.00
2023-02-20T03:18:12.705Z,30.17
2023-02-20T03:19:18.559Z,29.33
2023-02-20T03:20:22.680Z,28.83
2023-02-20T03:21:26.096Z,28.00
2023-02-20T03:22:36.186Z,27.67
2023-02-20T03:23:42.797Z,27.00
2023-02-20T03:24:55.548Z,27.00
2023-02-20T03:26:06.790Z,27.00
2023-02-20T03:27:08.845Z,27.00
2023-02-20T03:28:19.285Z,27.00
2023-02-20T03:29:30.229Z,27.00
2023-02-20T03:30:48.685Z,27.00
2023-02-20T03:32:41.280Z,28.00
2023-02-20T03:34:11.296Z,32.33
2023-02-20T03:35:32.930Z,34.00
2023-02-20T03:37:04.125Z,34.67
2023-02-20T03:38:26.246Z,37.00
2023-02-20T03:39:53.028Z,38.00
2023-02-20T03:41:16.186Z,39.00
2023-02-20T03:42:39.395Z,39.00
2023-02-20T03:43:45.145Z,40.00
2023-02-20T03:44:47.339Z,40.00
2023-02-20T03:45:50.880Z,40.00
2023-02-20T03:46:55.744Z,39.83
2023-02-20T03:48:02.168Z,39.00
2023-02-20T03:49:14.171Z,39.00
2023-02-20T03:50:34.776Z,39.00
2023-02-20T03:51:55.159Z,40.67
2023-02-20T03:52:57.214Z,41.17
2023-02-20T03:54:00.176Z,42.00
2023-02-20T03:55:02.557Z,41.67
2023-02-20T03:56:09.421Z,41.00
2023-02-20T03:57:20.153Z,41.00
2023-02-20T03:58:24.858Z,41.00
2023-02-20T03:59:31.054Z,42.00
2023-02-20T04:00:37.162Z,42.83
2023-02-20T04:01:42.039Z,44.00
2023-02-20T04:02:47.908Z,44.67
2023-02-20T04:03:51.327Z,45.33
2023-02-20T04:04:56.202Z,46.00
2023-02-20T04:05:59.799Z,46.00
2023-02-20T04:07:06.879Z,46.67
2023-02-20T04:08:12.709Z,47.83
2023-02-20T04:09:19.486Z,48.33
2023-02-20T04:10:27.000Z,49.00
2023-02-20T04:11:37.462Z,49.17
2023-02-20T04:12:43.882Z,50.00
2023-02-20T04:13:48.323Z,51.00
2023-02-20T04:14:51.839Z,53.00
2023-02-20T04:15:57.052Z,55.50
2023-02-20T04:17:03.158Z,57.83
2023-02-20T04:18:10.208Z,58.17
2023-02-20T04:19:12.238Z,57.83
2023-02-20T04:20:14.733Z,57.00
2023-02-20T04:21:23.651Z,57.00
2023-02-20T04:22:29.303Z,56.00
2023-02-20T04:23:36.757Z,54.67
2023-02-20T04:25:03.413Z,52.83
2023-02-20T04:26:13.933Z,50.83
2023-02-20T04:27:16.484Z,50.00
2023-02-20T04:28:18.670Z,50.00
2023-02-20T04:29:20.760Z,50.00
2023-02-20T04:30:23.426Z,50.00
2023-02-20T04:31:26.717Z,50.00
2023-02-20T04:32:28.693Z,51.83
2023-02-20T04:33:30.866Z,53.67
2023-02-20T04:34:32.955Z,56.17
2023-02-20T04:35:34.734Z,61.50
2023-02-20T04:36:36.568Z,66.67
2023-02-20T04:37:38.337Z,67.67
2023-02-20T04:38:40.220Z,67.00
2023-02-20T04:39:42.265Z,67.00
2023-02-20T04:40:44.136Z,67.00
2023-02-20T04:41:45.923Z,67.00
2023-02-20T04:42:47.716Z,66.00
2023-02-20T04:43:49.582Z,66.00
2023-02-20T04:44:51.426Z,65.83
2023-02-20T04:45:53.289Z,65.00
2023-02-20T04:46:55.148Z,64.17
2023-02-20T04:47:56.987Z,61.67
2023-02-20T04:48:58.778Z,60.33
2023-02-20T04:50:00.860Z,59.17
2023-02-20T04:51:03.226Z,59.00
2023-02-20T04:52:05.071Z,59.00
2023-02-20T04:53:07.615Z,59.00
2023-02-20T04:54:09.440Z,59.33
2023-02-20T04:55:11.332Z,68.33
2023-02-20T04:56:14.601Z,69.50
2023-02-20T04:57:17.589Z,73.67
2023-02-20T04:58:19.914Z,72.33
2023-02-20T04:59:21.871Z,70.00
2023-02-20T05:00:25.220Z,68.17
2023-02-20T05:01:27.162Z,67.17
2023-02-20T05:02:28.919Z,66.00
2023-02-20T05:03:30.719Z,64.83
2023-02-20T05:04:32.517Z,64.00
2023-02-20T05:05:34.367Z,63.00
2023-02-20T05:06:41.916Z,62.67
2023-02-20T05:07:43.911Z,62.00
2023-02-20T05:08:45.989Z,63.17
2023-02-20T05:09:47.794Z,67.67
2023-02-20T05:10:49.606Z,78.67
2023-02-20T05:11:52.289Z,81.67
2023-02-20T05:12:54.448Z,84.33
2023-02-20T05:13:56.298Z,90.33
2023-02-20T05:14:58.138Z,96.83
2023-02-20T05:15:59.987Z,96.33
2023-02-20T05:17:01.952Z,96.67
2023-02-20T05:18:05.253Z,99.17
2023-02-20T05:19:08.424Z,104.50
2023-02-20T05:20:11.710Z,108.33
2023-02-20T05:21:33.325Z,111.33
2023-02-20T05:22:35.184Z,118.50
2023-02-20T05:23:37.054Z,129.00
2023-02-20T05:24:38.833Z,131.33
2023-02-20T05:25:40.833Z,139.00
2023-02-20T05:26:43.026Z,140.17
2023-02-20T05:27:45.256Z,130.50
2023-02-20T05:28:53.769Z,137.17
2023-02-20T05:29:57.940Z,154.50
2023-02-20T05:30:59.858Z,162.83
2023-02-20T05:32:01.878Z,159.17
2023-02-20T05:33:03.633Z,150.67
2023-02-20T05:34:05.505Z,145.83
2023-02-20T05:35:07.462Z,143.17
2023-02-20T05:36:09.476Z,140.83
2023-02-20T05:37:13.586Z,135.33
2023-02-20T05:38:18.737Z,123.17
2023-02-20T05:39:21.100Z,108.17
2023-02-20T05:40:22.944Z,111.67
2023-02-20T05:41:24.955Z,116.67
2023-02-20T05:42:26.904Z,112.67
2023-02-20T05:43:28.715Z,107.17
2023-02-20T05:44:30.543Z,110.50
2023-02-20T05:45:32.418Z,112.33
2023-02-20T05:46:40.728Z,113.83
2023-02-20T05:47:42.867Z,113.00
2023-02-20T05:48:48.940Z,111.00
2023-02-20T05:49:51.305Z,119.17
2023-02-20T05:50:54.118Z,133.67
2023-02-20T05:51:56.968Z,136.50
2023-02-20T05:52:58.839Z,142.17
2023-02-20T05:54:00.701Z,161.50
2023-02-20T05:55:02.765Z,154.50
2023-02-20T05:56:04.693Z,154.17
2023-02-20T05:57:07.819Z,148.83
2023-02-20T05:58:09.719Z,146.50
2023-02-20T05:59:12.133Z,145.83
2023-02-20T06:00:14.493Z,149.50
2023-02-20T06:01:28.104Z,154.83
2023-02-20T06:02:34.117Z,153.17
2023-02-20T06:03:38.087Z,180.33
2023-02-20T06:04:40.375Z,172.83
2023-02-20T06:05:42.525Z,165.33
2023-02-20T06:06:45.082Z,198.50
2023-02-20T06:07:47.373Z,179.33
2023-02-20T06:08:49.368Z,175.67
2023-02-20T06:09:51.135Z,174.83
2023-02-20T06:10:53.001Z,179.33
2023-02-20T06:11:56.565Z,186.33
2023-02-20T06:12:58.682Z,217.00
2023-02-20T06:14:00.827Z,254.17
2023-02-20T06:15:02.700Z,226.67
2023-02-20T06:16:04.936Z,214.50
2023-02-20T06:17:06.857Z,206.17
2023-02-20T06:18:08.662Z,203.33
2023-02-20T06:19:10.600Z,209.33
2023-02-20T06:20:12.429Z,215.33
2023-02-20T06:21:14.525Z,210.33
2023-02-20T06:22:17.387Z,209.17
2023-02-20T06:23:19.325Z,213.00
2023-02-20T06:24:21.879Z,214.67
2023-02-20T06:25:23.726Z,212.00
2023-02-20T06:26:25.632Z,209.83
2023-02-20T06:27:27.751Z,206.17
2023-02-20T06:28:29.718Z,195.17
2023-02-20T06:29:31.619Z,187.17
2023-02-20T06:30:33.759Z,165.83
2023-02-20T06:31:36.081Z,157.83
2023-02-20T06:32:38.029Z,167.83
2023-02-20T06:33:39.882Z,152.50
2023-02-20T06:34:41.654Z,139.00
2023-02-20T06:35:43.401Z,127.67
2023-02-20T06:36:45.502Z,111.83
2023-02-20T06:37:47.453Z,111.00
2023-02-20T06:38:49.342Z,123.17
2023-02-20T06:39:51.181Z,125.33
2023-02-20T06:40:52.982Z,133.00
2023-02-20T06:41:55.326Z,130.50
2023-02-20T06:42:57.120Z,121.00
2023-02-20T06:43:58.881Z,121.33
2023-02-20T06:45:00.682Z,119.17
2023-02-20T06:46:02.572Z,115.33
2023-02-20T06:47:08.903Z,106.67
2023-02-20T06:48:11.421Z,103.17
2023-02-20T06:49:14.099Z,97.67
2023-02-20T06:50:16.156Z,101.67
2023-02-20T06:51:29.382Z,107.33
2023-02-20T06:52:31.297Z,115.00
2023-02-20T06:53:38.159Z,118.00
2023-02-20T06:54:40.384Z,117.17
2023-02-20T06:55:42.308Z,115.17
2023-02-20T06:56:44.294Z,114.67
2023-02-20T06:57:46.321Z,115.00
2023-02-20T06:58:49.949Z,110.33
2023-02-20T06:59:51.787Z,101.00
2023-02-20T07:00:53.733Z,102.83
2023-02-20T07:01:55.570Z,114.33
2023-02-20T07:02:57.610Z,147.83
2023-02-20T07:04:00.475Z,133.00
2023-02-20T07:05:04.708Z,125.33
2023-02-20T07:06:07.006Z,113.17
2023-02-20T07:07:08.835Z,156.00
2023-02-20T07:08:11.026Z,137.17
2023-02-20T07:09:13.842Z,112.00
2023-02-20T07:10:16.440Z,91.33
2023-02-20T07:11:20.887Z,94.50
2023-02-20T07:12:22.970Z,134.83
2023-02-20T07:13:24.840Z,232.67
2023-02-20T07:14:26.789Z,162.50
2023-02-20T07:15:28.616Z,147.83
2023-02-20T07:16:31.381Z,132.67
2023-02-20T07:17:33.221Z,131.83
2023-02-20T07:18:35.315Z,131.00
2023-02-20T07:19:37.290Z,130.00
2023-02-20T07:20:39.252Z,129.17
2023-02-20T07:21:41.123Z,130.33
2023-02-20T07:22:50.487Z,137.67
2023-02-20T07:23:53.484Z,146.00
2023-02-20T07:24:56.010Z,152.83
2023-02-20T07:25:58.196Z,156.83
2023-02-20T07:27:00.243Z,161.00
2023-02-20T07:28:02.118Z,160.00
2023-02-20T07:29:04.522Z,156.50
2023-02-20T07:30:06.749Z,156.83
2023-02-20T07:31:08.759Z,154.50
2023-02-20T07:32:10.684Z,146.33
2023-02-20T07:33:12.530Z,130.83
2023-02-20T07:34:14.656Z,118.67
2023-02-20T07:35:16.544Z,118.33
2023-02-20T07:36:18.697Z,118.83
2023-02-20T07:37:20.592Z,122.50
2023-02-20T07:38:24.500Z,123.17
2023-02-20T07:39:27.391Z,125.33
2023-02-20T07:40:29.546Z,145.50
2023-02-20T07:41:37.418Z,166.67
2023-02-20T07:42:39.470Z,162.83
2023-02-20T07:43:41.312Z,155.17
2023-02-20T07:44:48.888Z,152.83
2023-02-20T07:45:50.845Z,151.50
2023-02-20T07:46:52.772Z,149.50
2023-02-20T07:47:54.677Z,148.00
2023-02-20T07:48:56.567Z,159.83
2023-02-20T07:49:58.480Z,214.67
2023-02-20T07:51:00.845Z,240.67
2023-02-20T07:52:02.995Z,216.00
2023-02-20T07:53:04.962Z,184.50
2023-02-20T07:54:06.838Z,180.67
2023-02-20T07:55:08.876Z,165.50
2023-02-20T07:56:11.181Z,152.33
2023-02-20T07:57:15.520Z,240.83
2023-02-20T07:58:17.398Z,316.83
2023-02-20T07:59:19.454Z,231.83
2023-02-20T08:00:21.854Z,273.50
2023-02-20T08:01:23.914Z,297.00
2023-02-20T08:02:25.755Z,255.00
2023-02-20T08:03:27.605Z,231.50
2023-02-20T08:04:29.393Z,181.00
2023-02-20T08:05:40.208Z,172.00
2023-02-20T08:06:45.667Z,214.33
2023-02-20T08:07:48.624Z,145.33
2023-02-20T08:08:51.818Z,131.83
2023-02-20T08:09:53.621Z,143.33
2023-02-20T08:11:03.661Z,140.00
2023-02-20T08:12:10.325Z,142.83
2023-02-20T08:13:12.234Z,129.17
2023-02-20T08:14:14.862Z,113.17
2023-02-20T08:15:18.966Z,96.67
2023-02-20T08:16:21.860Z,94.50
2023-02-20T08:17:25.141Z,91.17
2023-02-20T08:18:28.341Z,87.17
2023-02-20T08:19:30.643Z,92.83
2023-02-20T08:20:32.535Z,96.17
2023-02-20T08:21:34.331Z,95.83
2023-02-20T08:22:41.428Z,94.67
2023-02-20T08:23:43.598Z,84.17
2023-02-20T08:24:45.504Z,84.83
2023-02-20T08:25:47.632Z,97.17
2023-02-20T08:26:49.548Z,103.67
2023-02-20T08:27:51.881Z,104.67
2023-02-20T08:28:54.137Z,104.00
2023-02-20T08:29:56.184Z,99.17
2023-02-20T08:30:58.061Z,97.50
2023-02-20T08:32:00.073Z,91.50
2023-02-20T08:33:02.485Z,95.50
2023-02-20T08:34:04.306Z,96.33
2023-02-20T08:35:06.658Z,98.83
2023-02-20T08:36:08.997Z,99.83
2023-02-20T08:37:11.513Z,101.00
2023-02-20T08:38:28.876Z,114.00
2023-02-20T08:39:30.754Z,102.67
2023-02-20T08:40:33.461Z,94.67
2023-02-20T08:41:35.342Z,95.67
2023-02-20T08:42:37.255Z,96.83
2023-02-20T08:43:40.331Z,95.33
2023-02-20T08:44:42.263Z,96.33
2023-02-20T08:45:44.090Z,97.50
2023-02-20T08:46:47.789Z,97.83
2023-02-20T08:47:50.541Z,96.00
2023-02-20T08:48:52.480Z,90.00
2023-02-20T08:49:54.295Z,98.33
2023-02-20T08:50:56.165Z,112.33
2023-02-20T08:51:58.369Z,114.67
2023-02-20T08:53:00.256Z,146.67
2023-02-20T08:54:04.333Z,162.00
2023-02-20T08:55:06.265Z,175.17
2023-02-20T08:56:09.608Z,151.67
2023-02-20T08:57:11.478Z,146.50
2023-02-20T08:58:13.542Z,164.50
2023-02-20T08:59:15.437Z,180.50
2023-02-20T09:00:19.125Z,155.83
2023-02-20T09:01:41.281Z,140.67
2023-02-20T09:02:43.365Z,138.33
2023-02-20T09:03:45.302Z,128.67
2023-02-20T09:04:48.383Z,120.67
2023-02-20T09:05:50.656Z,119.33
2023-02-20T09:06:52.599Z,124.83
2023-02-20T09:07:54.492Z,202.00
2023-02-20T09:08:56.346Z,181.00
2023-02-20T09:09:58.707Z,145.50
2023-02-20T09:11:00.966Z,133.50
2023-02-20T09:12:02.966Z,161.17
2023-02-20T09:13:05.068Z,189.83
2023-02-20T09:14:06.888Z,175.67
2023-02-20T09:15:09.936Z,155.50
2023-02-20T09:16:14.040Z,133.33
2023-02-20T09:17:16.926Z,121.33
2023-02-20T09:18:18.939Z,129.17
2023-02-20T09:19:21.634Z,133.17
2023-02-20T09:20:23.960Z,135.50
2023-02-20T09:21:27.997Z,135.17
2023-02-20T09:22:33.140Z,132.67
2023-02-20T09:23:35.032Z,134.17
2023-02-20T09:24:37.007Z,135.83
2023-02-20T09:25:38.885Z,128.00
2023-02-20T09:26:40.860Z,105.00
2023-02-20T09:27:42.695Z,111.00
2023-02-20T09:28:44.744Z,117.67
2023-02-20T09:29:47.238Z,121.00
2023-02-20T09:30:49.854Z,121.67
2023-02-20T09:31:52.082Z,116.33
2023-02-20T09:32:54.616Z,116.00
2023-02-20T09:33:56.482Z,108.83
2023-02-20T09:34:58.727Z,85.83
2023-02-20T09:36:00.588Z,86.00
2023-02-20T09:37:02.474Z,100.50
2023-02-20T09:38:06.951Z,105.50
2023-02-20T09:39:08.804Z,104.17
2023-02-20T09:40:12.074Z,100.67
2023-02-20T09:41:41.611Z,97.00
2023-02-20T09:42:51.335Z,160.00
2023-02-20T09:44:23.538Z,129.00
2023-02-20T09:45:29.598Z,99.83
2023-02-20T09:46:31.695Z,91.50
2023-02-20T09:47:42.729Z,91.67
2023-02-20T09:49:25.061Z,142.83
2023-02-20T09:50:46.079Z,109.50
2023-02-20T09:51:55.981Z,96.67
2023-02-20T09:53:28.067Z,100.50
2023-02-20T09:54:39.830Z,100.17
2023-02-20T09:55:41.866Z,101.00
2023-02-20T09:56:53.678Z,112.83
2023-02-20T09:57:56.275Z,137.33
2023-02-20T09:59:06.017Z,126.50
2023-02-20T10:00:20.668Z,210.00
2023-02-20T10:01:23.893Z,185.33
2023-02-20T10:02:33.802Z,129.17
2023-02-20T10:03:37.518Z,124.83
2023-02-20T10:04:55.406Z,172.33
2023-02-20T10:06:08.935Z,275.17
2023-02-20T10:07:32.733Z,278.67
2023-02-20T10:08:34.715Z,239.50
2023-02-20T10:09:37.258Z,221.50
2023-02-20T10:10:42.186Z,200.67
2023-02-20T10:11:49.332Z,202.50
2023-02-20T10:13:03.215Z,178.50
2023-02-20T10:14:20.162Z,172.17
2023-02-20T10:15:24.780Z,169.00
2023-02-20T10:16:36.045Z,159.50
2023-02-20T10:17:44.898Z,133.50
2023-02-20T10:19:11.215Z,145.83
2023-02-20T10:20:46.496Z,129.67
2023-02-20T10:22:33.175Z,121.83
2023-02-20T10:24:04.918Z,140.33
2023-02-20T10:25:35.587Z,153.33
2023-02-20T10:26:43.766Z,132.50
2023-02-20T10:28:04.975Z,128.17
2023-02-20T10:29:27.830Z,234.33
2023-02-20T10:30:40.824Z,277.17
2023-02-20T10:31:46.372Z,292.67
2023-02-20T10:32:56.133Z,297.17
2023-02-20T10:34:11.348Z,336.33
2023-02-20T10:35:21.064Z,268.50
2023-02-20T10:36:26.904Z,285.00
2023-02-20T10:37:46.674Z,375.00
2023-02-20T10:38:54.587Z,380.50
2023-02-20T10:40:04.685Z,356.67
2023-02-20T10:41:13.709Z,284.33
2023-02-20T10:42:31.010Z,310.67
2023-02-20T10:43:38.253Z,343.67
2023-02-20T10:44:54.493Z,366.17
2023-02-20T10:46:05.763Z,395.17
2023-02-20T10:47:26.495Z,397.00
2023-02-20T10:48:32.071Z,474.17
2023-02-20T10:49:39.163Z,482.67
2023-02-20T10:50:53.627Z,468.50
2023-02-20T10:52:01.017Z,466.50
2023-02-20T10:53:26.847Z,443.00
2023-02-20T10:54:34.549Z,264.67
2023-02-20T10:56:08.637Z,187.83
2023-02-20T10:57:21.097Z,183.33
2023-02-20T10:59:03.895Z,143.33
2023-02-20T11:00:23.495Z,139.67
2023-02-20T11:01:26.990Z,129.33
2023-02-20T11:02:34.130Z,316.33
2023-02-20T11:03:55.808Z,478.17
2023-02-20T11:05:04.029Z,362.33
2023-02-20T11:06:09.171Z,245.33
2023-02-20T11:07:15.323Z,208.67
2023-02-20T11:08:21.019Z,207.67
2023-02-20T11:09:23.480Z,179.17
2023-02-20T11:10:25.620Z,145.33
2023-02-20T11:11:35.227Z,185.67
2023-02-20T11:12:42.195Z,196.83
2023-02-20T11:13:44.319Z,162.83
2023-02-20T11:14:49.476Z,158.50
2023-02-20T11:15:54.460Z,195.50
2023-02-20T11:17:12.453Z,155.00
2023-02-20T11:18:21.481Z,132.33
2023-02-20T11:19:29.093Z,138.67
2023-02-20T11:20:35.266Z,145.00
2023-02-20T11:21:40.957Z,153.17
2023-02-20T11:22:49.216Z,156.67
2023-02-20T11:23:51.074Z,147.67
2023-02-20T11:24:52.899Z,129.33
2023-02-20T11:25:54.767Z,109.17
2023-02-20T11:27:04.062Z,106.50
2023-02-20T11:28:20.637Z,277.67
2023-02-20T11:29:24.071Z,240.83
2023-02-20T11:30:31.190Z,193.67
2023-02-20T11:31:34.830Z,253.00
2023-02-20T11:32:38.833Z,345.00
2023-02-20T11:33:47.349Z,227.83
2023-02-20T11:35:03.508Z,159.67
2023-02-20T11:36:14.552Z,153.83
2023-02-20T11:37:17.353Z,160.33
2023-02-20T11:38:22.479Z,149.67
2023-02-20T11:39:27.648Z,197.50
2023-02-20T11:40:33.010Z,139.50
2023-02-20T11:41:36.947Z,145.50
2023-02-20T11:42:38.849Z,232.00
2023-02-20T11:44:00.598Z,163.33
2023-02-20T11:45:31.604Z,179.17
2023-02-20T11:46:33.580Z,154.50
2023-02-20T11:47:35.877Z,147.67
2023-02-20T11:48:40.495Z,312.17
2023-02-20T11:49:42.636Z,207.17
2023-02-20T11:50:48.287Z,165.83
2023-02-20T11:51:50.728Z,160.00
2023-02-20T11:53:26.120Z,158.33
2023-02-20T11:54:32.330Z,138.33
2023-02-20T11:55:35.268Z,150.50
2023-02-20T11:56:37.225Z,152.83
2023-02-20T11:57:44.270Z,138.17
2023-02-20T11:58:47.467Z,124.50
2023-02-20T11:59:50.762Z,127.67
2023-02-20T12:00:54.889Z,155.83
2023-02-20T12:02:20.420Z,153.00
2023-02-20T12:03:22.569Z,195.00
2023-02-20T12:04:25.318Z,160.83
2023-02-20T12:05:48.079Z,140.67
2023-02-20T12:06:50.159Z,125.33
2023-02-20T12:07:51.947Z,132.17
2023-02-20T12:08:56.643Z,137.50
2023-02-20T12:10:16.521Z,121.83
2023-02-20T12:11:22.632Z,120.33
2023-02-20T12:12:28.699Z,122.33
2023-02-20T12:13:34.373Z,127.00
2023-02-20T12:14:36.657Z,130.50
2023-02-20T12:15:38.626Z,134.17
2023-02-20T12:16:49.629Z,132.67
2023-02-20T12:18:30.253Z,129.00
2023-02-20T12:19:45.614Z,127.00
2023-02-20T12:21:17.104Z,128.00
2023-02-20T12:22:34.789Z,128.00
2023-02-20T12:23:43.966Z,150.50
2023-02-20T12:25:04.350Z,144.17
2023-02-20T12:26:09.136Z,134.00
2023-02-20T12:27:32.504Z,144.67
2023-02-20T12:28:47.555Z,177.33
2023-02-20T12:29:52.369Z,190.50
2023-02-20T12:31:21.169Z,258.50
2023-02-20T12:32:42.846Z,357.00
2023-02-20T12:34:04.856Z,326.33
2023-02-20T12:35:09.413Z,322.50
2023-02-20T12:36:32.255Z,371.83
2023-02-20T12:37:36.984Z,280.83
2023-02-20T12:38:50.601Z,336.50
2023-02-20T12:39:57.987Z,287.50
2023-02-20T12:41:26.687Z,269.33
2023-02-20T12:42:34.285Z,173.50
2023-02-20T12:44:02.151Z,221.83
2023-02-20T12:45:13.928Z,194.17
2023-02-20T12:46:25.281Z,197.33
2023-02-20T12:47:36.232Z,188.83
2023-02-20T12:48:47.165Z,159.17
2023-02-20T12:50:07.583Z,285.83
2023-02-20T12:51:34.494Z,208.00
2023-02-20T12:52:51.056Z,142.00
2023-02-20T12:54:23.777Z,125.50
2023-02-20T12:55:52.945Z,154.33
2023-02-20T12:57:19.184Z,227.00
2023-02-20T12:58:28.116Z,220.83
2023-02-20T13:00:00.341Z,208.67
2023-02-20T13:01:09.649Z,189.83
2023-02-20T13:02:42.240Z,133.33
2023-02-20T13:03:56.990Z,151.67
2023-02-20T13:05:01.136Z,147.17
2023-02-20T13:06:03.740Z,129.67
2023-02-20T13:07:18.649Z,106.17
2023-02-20T13:08:34.084Z,115.83
2023-02-20T13:09:41.289Z,136.17
2023-02-20T13:10:56.536Z,132.50
2023-02-20T13:12:04.948Z,100.17
2023-02-20T13:13:11.239Z,120.67
2023-02-20T13:14:13.013Z,120.33
2023-02-20T13:15:39.174Z,107.17
2023-02-20T13:16:50.694Z,146.67
2023-02-20T13:17:57.919Z,244.00
2023-02-20T13:18:59.865Z,204.83
2023-02-20T13:20:11.387Z,181.50
2023-02-20T13:21:18.720Z,174.33
2023-02-20T13:22:20.990Z,177.17
2023-02-20T13:23:22.758Z,167.50
2023-02-20T13:24:29.756Z,140.17
2023-02-20T13:25:35.429Z,125.67
2023-02-20T13:26:40.141Z,120.00
2023-02-20T13:27:42.356Z,121.00
2023-02-20T13:28:45.757Z,129.50
2023-02-20T13:29:59.915Z,112.83
2023-02-20T13:31:14.382Z,128.50
2023-02-20T13:32:19.019Z,159.00
2023-02-20T13:33:25.601Z,153.33
2023-02-20T13:34:34.519Z,143.00
2023-02-20T13:35:42.407Z,164.83
2023-02-20T13:36:45.078Z,141.17
2023-02-20T13:37:56.256Z,115.50
2023-02-20T13:39:21.599Z,100.33
2023-02-20T13:40:26.405Z,92.50
2023-02-20T13:41:54.467Z,93.67
2023-02-20T13:43:27.115Z,204.17
2023-02-20T13:44:31.590Z,158.50
2023-02-20T13:45:44.157Z,322.17
2023-02-20T13:46:55.989Z,275.17
2023-02-20T13:48:18.293Z,207.17
2023-02-20T13:49:45.683Z,136.17
2023-02-20T13:50:47.577Z,118.00
2023-02-20T13:51:49.849Z,118.17
2023-02-20T13:52:56.996Z,163.67
2023-02-20T13:54:23.745Z,246.00
2023-02-20T13:55:26.994Z,183.67
2023-02-20T13:57:07.006Z,315.00
2023-02-20T13:58:15.048Z,234.67
2023-02-20T13:59:21.154Z,175.00
2023-02-20T14:00:34.957Z,138.17
2023-02-20T14:01:55.396Z,259.83
2023-02-20T14:02:57.757Z,157.33
2023-02-20T14:04:06.417Z,153.00
2023-02-20T14:05:17.747Z,172.17
2023-02-20T14:06:21.925Z,153.50
2023-02-20T14:07:38.166Z,100.83
2023-02-20T14:08:48.254Z,88.50
2023-02-20T14:10:03.676Z,99.00